Terminal Aerodrome Forecast
Issued by NWS

Current Version | Previous Version | Text Only | Print | Product List | Glossary On
Versions: 1 2 3 4 5 6 7 8 9 10 11 12 13
000
FTUS44 KLIX 180520
TAFMSY
TAF
KMSY 180520Z 1806/1912 13007KT P6SM SCT030 BKN130 BKN250
     FM181500 12011KT P6SM SCT025 BKN150 PROB30 1815/1821 4SM TSRA
      BKN030CB
     FM190400 VRB03KT P6SM SCT030 BKN250=

USA.gov is the U.S. government's official web portal to all federal, state and local government web resources and services.